sensor_id;sensor_type;location;lat;lon;timestamp;pressure;altitude;pressure_sealevel;temperature;humidity
53908;BME280;40469;47.998;7.794;2023-01-15T00:01:33;97997.78;;;12.79;100.00
53908;BME280;40469;47.998;7.794;2023-01-15T00:03:59;97988.78;;;12.86;100.00
53908;BME280;40469;47.998;7.794;2023-01-15T00:06:27;97984.47;;;12.85;100.00
53908;BME280;40469;47.998;7.794;2023-01-15T00:08:52;97987.09;;;12.85;100.00
53908;BME280;40469;47.998;7.794;2023-01-15T00:11:18;97986.16;;;12.61;100.00
53908;BME280;40469;47.998;7.794;2023-01-15T00:13:44;97963.31;;;12.39;100.00
53908;BME280;40469;47.998;7.794;2023-01-15T00:16:10;97960.72;;;12.12;100.00
53908;BME280;40469;47.998;7.794;2023-01-15T00:18:35;97967.63;;;11.85;100.00
53908;BME280;40469;47.998;7.794;2023-01-15T00:21:02;97948.00;;;11.72;100.00
53908;BME280;40469;47.998;7.794;2023-01-15T00:23:28;97953.44;;;11.64;100.00
53908;BME280;40469;47.998;7.794;2023-01-15T00:26:12;97932.09;;;11.50;100.00
53908;BME280;40469;47.998;7.794;2023-01-15T00:28:56;97949.16;;;11.33;100.00
53908;BME280;40469;47.998;7.794;2023-01-15T00:31:21;97950.88;;;11.33;100.00
53908;BME280;40469;47.998;7.794;2023-01-15T00:33:46;97943.81;;;11.07;100.00
53908;BME280;40469;47.998;7.794;2023-01-15T00:36:12;97951.13;;;10.94;100.00
53908;BME280;40469;47.998;7.794;2023-01-15T00:38:37;97937.25;;;10.92;100.00
53908;BME280;40469;47.998;7.794;2023-01-15T00:41:02;97934.63;;;10.92;100.00
53908;BME280;40469;47.998;7.794;2023-01-15T00:43:27;97935.44;;;10.94;100.00
53908;BME280;40469;47.998;7.794;2023-01-15T00:45:53;97935.44;;;10.94;100.00
53908;BME280;40469;47.998;7.794;2023-01-15T00:48:18;97928.56;;;10.91;100.00
53908;BME280;40469;47.998;7.794;2023-01-15T00:50:43;97944.47;;;10.84;100.00
53908;BME280;40469;47.998;7.794;2023-01-15T00:53:08;97935.31;;;10.98;100.00
53908;BME280;40469;47.998;7.794;2023-01-15T00:55:33;97924.03;;;10.98;100.00
53908;BME280;40469;47.998;7.794;2023-01-15T00:57:59;97924.75;;;11.03;100.00
53908;BME280;40469;47.998;7.794;2023-01-15T01:00:24;97939.41;;;11.09;100.00
53908;BME280;40469;47.998;7.794;2023-01-15T01:02:49;97936.44;;;11.21;100.00
53908;BME280;40469;47.998;7.794;2023-01-15T01:05:14;97937.19;;;11.25;100.00
53908;BME280;40469;47.998;7.794;2023-01-15T01:07:40;97925.03;;;11.24;100.00
53908;BME280;40469;47.998;7.794;2023-01-15T01:10:05;97937.78;;;11.34;100.00
53908;BME280;40469;47.998;7.794;2023-01-15T01:12:30;97933.44;;;11.35;100.00
53908;BME280;40469;47.998;7.794;2023-01-15T01:14:56;97929.84;;;11.37;100.00
53908;BME280;40469;47.998;7.794;2023-01-15T01:17:21;97920.16;;;11.41;100.00
53908;BME280;40469;47.998;7.794;2023-01-15T01:19:46;97916.69;;;11.41;100.00
53908;BME280;40469;47.998;7.794;2023-01-15T01:22:11;97914.75;;;11.47;100.00
53908;BME280;40469;47.998;7.794;2023-01-15T01:24:37;97922.66;;;11.46;100.00
53908;BME280;40469;47.998;7.794;2023-01-15T01:27:02;97930.06;;;11.60;100.00
53908;BME280;40469;47.998;7.794;2023-01-15T01:29:27;97917.09;;;11.56;100.00
53908;BME280;40469;47.998;7.794;2023-01-15T01:31:52;97913.16;;;11.70;100.00
53908;BME280;40469;47.998;7.794;2023-01-15T01:34:18;97905.28;;;11.71;100.00
53908;BME280;40469;47.998;7.794;2023-01-15T01:36:43;97916.41;;;11.78;100.00
53908;BME280;40469;47.998;7.794;2023-01-15T01:39:12;97906.75;;;11.80;100.00
53908;BME280;40469;47.998;7.794;2023-01-15T01:41:38;97903.84;;;11.89;100.00
53908;BME280;40469;47.998;7.794;2023-01-15T01:44:53;97900.19;;;11.97;100.00
53908;BME280;40469;47.998;7.794;2023-01-15T01:46:51;97895.88;;;11.94;100.00
53908;BME280;40469;47.998;7.794;2023-01-15T01:49:16;97886.00;;;12.04;100.00
53908;BME280;40469;47.998;7.794;2023-01-15T01:51:46;97877.81;;;12.13;100.00
53908;BME280;40469;47.998;7.794;2023-01-15T01:54:14;97874.19;;;12.17;100.00
53908;BME280;40469;47.998;7.794;2023-01-15T01:56:41;97891.66;;;12.17;100.00
53908;BME280;40469;47.998;7.794;2023-01-15T01:59:06;97883.59;;;12.23;100.00
53908;BME280;40469;47.998;7.794;2023-01-15T02:01:32;97879.53;;;12.14;100.00
53908;BME280;40469;47.998;7.794;2023-01-15T02:03:58;97875.53;;;12.29;100.00
53908;BME280;40469;47.998;7.794;2023-01-15T02:06:24;97880.56;;;12.35;100.00
53908;BME280;40469;47.998;7.794;2023-01-15T02:08:50;97877.19;;;12.31;100.00
53908;BME280;40469;47.998;7.794;2023-01-15T02:11:16;97877.88;;;12.37;100.00
53908;BME280;40469;47.998;7.794;2023-01-15T02:13:50;97877.47;;;12.49;100.00
53908;BME280;40469;47.998;7.794;2023-01-15T02:18:49;97879.22;;;12.48;100.00
53908;BME280;40469;47.998;7.794;2023-01-15T02:21:23;97870.31;;;12.54;100.00
53908;BME280;40469;47.998;7.794;2023-01-15T02:29:26;97864.72;;;12.63;100.00
53908;BME280;40469;47.998;7.794;2023-01-15T02:31:54;97862.94;;;12.65;100.00
53908;BME280;40469;47.998;7.794;2023-01-15T02:34:21;97845.94;;;12.76;100.00
53908;BME280;40469;47.998;7.794;2023-01-15T02:36:49;97852.91;;;12.77;100.00
53908;BME280;40469;47.998;7.794;2023-01-15T02:39:15;97846.94;;;12.73;100.00
53908;BME280;40469;47.998;7.794;2023-01-15T02:41:43;97854.16;;;12.66;100.00
53908;BME280;40469;47.998;7.794;2023-01-15T02:44:10;97842.84;;;12.66;100.00
53908;BME280;40469;47.998;7.794;2023-01-15T02:46:37;97846.41;;;12.63;100.00
53908;BME280;40469;47.998;7.794;2023-01-15T02:49:03;97845.84;;;12.55;100.00
53908;BME280;40469;47.998;7.794;2023-01-15T02:51:33;97846.44;;;12.38;100.00
53908;BME280;40469;47.998;7.794;2023-01-15T02:54:01;97855.81;;;12.44;100.00
53908;BME280;40469;47.998;7.794;2023-01-15T02:56:29;97868.41;;;12.34;100.00
53908;BME280;40469;47.998;7.794;2023-01-15T02:58:58;97851.50;;;12.43;100.00
53908;BME280;40469;47.998;7.794;2023-01-15T03:01:37;97852.50;;;12.39;100.00
53908;BME280;40469;47.998;7.794;2023-01-15T03:04:21;97869.13;;;12.38;100.00
53908;BME280;40469;47.998;7.794;2023-01-15T03:06:51;97859.63;;;12.35;100.00
53908;BME280;40469;47.998;7.794;2023-01-15T03:09:19;97856.38;;;12.28;100.00
53908;BME280;40469;47.998;7.794;2023-01-15T03:12:32;97857.38;;;12.24;100.00
53908;BME280;40469;47.998;7.794;2023-01-15T03:17:27;97834.78;;;12.22;100.00
53908;BME280;40469;47.998;7.794;2023-01-15T03:19:57;97853.16;;;12.20;100.00
53908;BME280;40469;47.998;7.794;2023-01-15T03:22:25;97856.56;;;12.22;100.00
53908;BME280;40469;47.998;7.794;2023-01-15T03:24:56;97855.78;;;12.20;100.00
53908;BME280;40469;47.998;7.794;2023-01-15T03:27:24;97861.34;;;12.11;100.00
53908;BME280;40469;47.998;7.794;2023-01-15T03:29:51;97828.81;;;12.18;100.00
53908;BME280;40469;47.998;7.794;2023-01-15T03:32:17;97829.59;;;12.20;100.00
53908;BME280;40469;47.998;7.794;2023-01-15T03:34:49;97822.78;;;12.16;100.00
53908;BME280;40469;47.998;7.794;2023-01-15T03:37:15;97822.09;;;12.11;100.00
53908;BME280;40469;47.998;7.794;2023-01-15T03:39:41;97834.19;;;12.13;100.00
53908;BME280;40469;47.998;7.794;2023-01-15T03:57:13;97806.16;;;12.17;100.00
53908;BME280;40469;47.998;7.794;2023-01-15T03:59:42;97809.75;;;12.14;100.00
53908;BME280;40469;47.998;7.794;2023-01-15T04:02:11;97806.53;;;12.06;100.00
53908;BME280;40469;47.998;7.794;2023-01-15T04:04:38;97808.88;;;12.14;100.00
53908;BME280;40469;47.998;7.794;2023-01-15T04:07:04;97797.13;;;12.01;100.00
53908;BME280;40469;47.998;7.794;2023-01-15T04:09:29;97805.50;;;12.10;100.00
53908;BME280;40469;47.998;7.794;2023-01-15T04:11:59;97802.75;;;12.15;100.00
53908;BME280;40469;47.998;7.794;2023-01-15T04:14:24;97791.38;;;12.16;100.00
53908;BME280;40469;47.998;7.794;2023-01-15T04:16:50;97790.75;;;12.09;100.00
53908;BME280;40469;47.998;7.794;2023-01-15T04:19:17;97801.03;;;12.14;100.00
53908;BME280;40469;47.998;7.794;2023-01-15T04:21:43;97783.84;;;12.07;100.00
53908;BME280;40469;47.998;7.794;2023-01-15T04:24:08;97785.75;;;12.02;100.00
53908;BME280;40469;47.998;7.794;2023-01-15T04:26:33;97784.38;;;11.91;100.00
53908;BME280;40469;47.998;7.794;2023-01-15T04:29:01;97787.78;;;11.93;100.00
53908;BME280;40469;47.998;7.794;2023-01-15T04:31:26;97800.97;;;11.90;100.00
53908;BME280;40469;47.998;7.794;2023-01-15T04:33:52;97797.63;;;11.85;100.00
53908;BME280;40469;47.998;7.794;2023-01-15T04:36:17;97771.75;;;11.77;100.00
53908;BME280;40469;47.998;7.794;2023-01-15T04:38:42;97795.97;;;11.83;100.00
53908;BME280;40469;47.998;7.794;2023-01-15T04:41:08;97770.72;;;11.82;100.00
53908;BME280;40469;47.998;7.794;2023-01-15T04:43:52;97794.31;;;11.80;100.00
53908;BME280;40469;47.998;7.794;2023-01-15T04:46:37;97792.75;;;11.74;100.00
53908;BME280;40469;47.998;7.794;2023-01-15T04:49:03;97796.84;;;11.56;100.00
53908;BME280;40469;47.998;7.794;2023-01-15T04:51:28;97798.47;;;11.59;100.00
53908;BME280;40469;47.998;7.794;2023-01-15T04:53:53;97805.25;;;11.38;100.00
53908;BME280;40469;47.998;7.794;2023-01-15T04:56:19;97791.47;;;11.33;100.00
53908;BME280;40469;47.998;7.794;2023-01-15T04:58:44;97813.56;;;11.24;100.00
53908;BME280;40469;47.998;7.794;2023-01-15T05:01:13;97799.69;;;11.20;100.00
53908;BME280;40469;47.998;7.794;2023-01-15T05:03:38;97786.47;;;11.27;100.00
53908;BME280;40469;47.998;7.794;2023-01-15T05:06:04;97779.47;;;11.27;100.00
53908;BME280;40469;47.998;7.794;2023-01-15T05:08:29;97794.91;;;11.35;100.00
53908;BME280;40469;47.998;7.794;2023-01-15T05:10:54;97790.41;;;11.40;100.00
53908;BME280;40469;47.998;7.794;2023-01-15T05:13:19;97779.25;;;11.62;100.00
53908;BME280;40469;47.998;7.794;2023-01-15T05:15:45;97797.31;;;11.68;100.00
53908;BME280;40469;47.998;7.794;2023-01-15T05:18:13;97785.13;;;11.68;100.00
53908;BME280;40469;47.998;7.794;2023-01-15T05:20:39;97801.00;;;11.62;100.00
53908;BME280;40469;47.998;7.794;2023-01-15T05:23:05;97783.34;;;11.69;100.00
53908;BME280;40469;47.998;7.794;2023-01-15T05:25:30;97782.56;;;11.67;100.00
53908;BME280;40469;47.998;7.794;2023-01-15T05:27:55;97781.94;;;11.58;100.00
53908;BME280;40469;47.998;7.794;2023-01-15T05:30:20;97771.16;;;11.43;100.00
53908;BME280;40469;47.998;7.794;2023-01-15T05:32:46;97790.88;;;11.25;100.00
53908;BME280;40469;47.998;7.794;2023-01-15T05:35:11;97777.94;;;11.20;100.00
53908;BME280;40469;47.998;7.794;2023-01-15T05:37:36;97777.78;;;11.26;100.00
53908;BME280;40469;47.998;7.794;2023-01-15T05:40:01;97769.69;;;11.34;100.00
53908;BME280;40469;47.998;7.794;2023-01-15T05:42:26;97788.97;;;11.30;100.00
53908;BME280;40469;47.998;7.794;2023-01-15T05:44:52;97774.16;;;11.30;100.00
53908;BME280;40469;47.998;7.794;2023-01-15T05:47:17;97764.59;;;11.29;100.00
53908;BME280;40469;47.998;7.794;2023-01-15T05:49:42;97780.19;;;11.32;100.00
53908;BME280;40469;47.998;7.794;2023-01-15T05:52:08;97783.75;;;11.30;100.00
53908;BME280;40469;47.998;7.794;2023-01-15T05:54:34;97793.16;;;11.35;100.00
53908;BME280;40469;47.998;7.794;2023-01-15T05:56:59;97789.91;;;11.27;100.00
53908;BME280;40469;47.998;7.794;2023-01-15T05:59:26;97786.31;;;11.31;100.00
53908;BME280;40469;47.998;7.794;2023-01-15T06:01:52;97794.16;;;11.31;100.00
53908;BME280;40469;47.998;7.794;2023-01-15T06:04:17;97803.69;;;11.32;100.00
53908;BME280;40469;47.998;7.794;2023-01-15T06:06:45;97820.09;;;11.37;100.00
53908;BME280;40469;47.998;7.794;2023-01-15T06:09:10;97814.69;;;11.44;100.00
53908;BME280;40469;47.998;7.794;2023-01-15T06:11:36;97811.00;;;11.49;100.00
53908;BME280;40469;47.998;7.794;2023-01-15T06:14:01;97814.38;;;11.53;100.00
53908;BME280;40469;47.998;7.794;2023-01-15T06:16:26;97813.66;;;11.48;100.00
53908;BME280;40469;47.998;7.794;2023-01-15T06:18:52;97818.13;;;11.44;100.00
53908;BME280;40469;47.998;7.794;2023-01-15T06:21:17;97816.41;;;11.43;100.00
53908;BME280;40469;47.998;7.794;2023-01-15T06:23:42;97805.41;;;11.33;100.00
53908;BME280;40469;47.998;7.794;2023-01-15T06:26:12;97824.47;;;11.37;100.00
53908;BME280;40469;47.998;7.794;2023-01-15T06:28:38;97833.66;;;11.20;100.00
53908;BME280;40469;47.998;7.794;2023-01-15T06:31:04;97820.50;;;10.95;100.00
53908;BME280;40469;47.998;7.794;2023-01-15T06:33:29;97831.66;;;10.71;100.00
53908;BME280;40469;47.998;7.794;2023-01-15T06:35:54;97822.13;;;10.38;100.00
53908;BME280;40469;47.998;7.794;2023-01-15T06:38:20;97817.69;;;10.42;100.00
53908;BME280;40469;47.998;7.794;2023-01-15T06:40:45;97843.00;;;10.38;100.00
53908;BME280;40469;47.998;7.794;2023-01-15T06:43:10;97816.13;;;10.35;100.00
53908;BME280;40469;47.998;7.794;2023-01-15T06:45:55;97827.31;;;10.40;100.00
53908;BME280;40469;47.998;7.794;2023-01-15T06:48:50;97853.34;;;10.41;100.00
53908;BME280;40469;47.998;7.794;2023-01-15T06:51:15;97855.88;;;10.44;100.00
53908;BME280;40469;47.998;7.794;2023-01-15T06:53:44;97875.81;;;10.47;100.00
53908;BME280;40469;47.998;7.794;2023-01-15T06:56:09;97873.25;;;10.46;100.00
53908;BME280;40469;47.998;7.794;2023-01-15T06:58:34;97884.72;;;10.40;100.00
53908;BME280;40469;47.998;7.794;2023-01-15T07:01:00;97882.28;;;10.32;100.00
53908;BME280;40469;47.998;7.794;2023-01-15T07:03:25;97878.75;;;10.35;100.00
53908;BME280;40469;47.998;7.794;2023-01-15T07:05:51;97900.69;;;10.26;100.00
53908;BME280;40469;47.998;7.794;2023-01-15T07:08:18;97931.03;;;10.29;100.00
53908;BME280;40469;47.998;7.794;2023-01-15T07:10:43;97952.34;;;10.12;100.00
53908;BME280;40469;47.998;7.794;2023-01-15T07:13:08;97926.47;;;9.65;100.00
53908;BME280;40469;47.998;7.794;2023-01-15T07:15:34;97951.31;;;9.42;100.00
53908;BME280;40469;47.998;7.794;2023-01-15T07:18:01;97951.72;;;9.22;100.00
53908;BME280;40469;47.998;7.794;2023-01-15T07:20:28;97977.19;;;9.08;100.00
53908;BME280;40469;47.998;7.794;2023-01-15T07:22:53;97986.56;;;8.71;100.00
53908;BME280;40469;47.998;7.794;2023-01-15T07:25:18;98006.13;;;8.43;100.00
53908;BME280;40469;47.998;7.794;2023-01-15T07:27:46;98009.88;;;8.23;100.00
53908;BME280;40469;47.998;7.794;2023-01-15T07:30:12;98023.06;;;8.11;100.00
53908;BME280;40469;47.998;7.794;2023-01-15T07:32:38;98033.63;;;8.00;100.00
53908;BME280;40469;47.998;7.794;2023-01-15T07:35:03;98038.84;;;7.98;100.00
53908;BME280;40469;47.998;7.794;2023-01-15T07:37:28;98054.66;;;7.83;100.00
53908;BME280;40469;47.998;7.794;2023-01-15T07:39:53;98070.34;;;7.77;100.00
53908;BME280;40469;47.998;7.794;2023-01-15T07:42:19;98079.88;;;7.76;100.00
53908;BME280;40469;47.998;7.794;2023-01-15T07:45:03;98081.72;;;7.67;100.00
53908;BME280;40469;47.998;7.794;2023-01-15T07:47:46;98093.06;;;7.61;100.00
53908;BME280;40469;47.998;7.794;2023-01-15T07:50:30;98093.25;;;7.41;100.00
53908;BME280;40469;47.998;7.794;2023-01-15T07:52:55;98105.34;;;7.48;100.00
53908;BME280;40469;47.998;7.794;2023-01-15T07:55:21;98101.03;;;7.44;100.00
53908;BME280;40469;47.998;7.794;2023-01-15T07:57:46;98108.03;;;7.37;100.00
53908;BME280;40469;47.998;7.794;2023-01-15T08:00:13;98120.13;;;7.40;100.00
53908;BME280;40469;47.998;7.794;2023-01-15T08:02:38;98119.19;;;7.46;100.00
53908;BME280;40469;47.998;7.794;2023-01-15T08:05:04;98119.22;;;7.44;100.00
53908;BME280;40469;47.998;7.794;2023-01-15T08:07:29;98120.06;;;7.45;100.00
53908;BME280;40469;47.998;7.794;2023-01-15T08:09:54;98129.69;;;7.38;100.00
53908;BME280;40469;47.998;7.794;2023-01-15T08:12:20;98144.34;;;7.44;100.00
53908;BME280;40469;47.998;7.794;2023-01-15T08:15:04;98153.81;;;7.48;100.00
53908;BME280;40469;47.998;7.794;2023-01-15T08:17:42;98164.28;;;7.40;100.00
53908;BME280;40469;47.998;7.794;2023-01-15T08:20:09;98170.41;;;7.31;100.00
53908;BME280;40469;47.998;7.794;2023-01-15T08:22:34;98167.03;;;7.23;100.00
53908;BME280;40469;47.998;7.794;2023-01-15T08:25:00;98177.38;;;7.26;100.00
53908;BME280;40469;47.998;7.794;2023-01-15T08:27:25;98174.91;;;7.12;100.00
53908;BME280;40469;47.998;7.794;2023-01-15T08:29:51;98174.03;;;7.15;100.00
53908;BME280;40469;47.998;7.794;2023-01-15T08:32:16;98177.47;;;7.17;100.00
53908;BME280;40469;47.998;7.794;2023-01-15T08:34:41;98169.72;;;7.14;100.00
53908;BME280;40469;47.998;7.794;2023-01-15T08:37:07;98174.91;;;7.12;100.00
53908;BME280;40469;47.998;7.794;2023-01-15T08:39:32;98195.75;;;7.08;100.00
53908;BME280;40469;47.998;7.794;2023-01-15T08:41:58;98221.63;;;7.14;100.00
53908;BME280;40469;47.998;7.794;2023-01-15T08:44:23;98226.81;;;7.14;100.00
53908;BME280;40469;47.998;7.794;2023-01-15T08:46:49;98236.38;;;7.09;100.00
53908;BME280;40469;47.998;7.794;2023-01-15T08:49:14;98232.09;;;7.05;100.00
53908;BME280;40469;47.998;7.794;2023-01-15T08:51:40;98231.25;;;7.01;100.00
53908;BME280;40469;47.998;7.794;2023-01-15T08:54:05;98241.63;;;6.99;100.00
53908;BME280;40469;47.998;7.794;2023-01-15T08:56:30;98257.28;;;6.87;100.00
53908;BME280;40469;47.998;7.794;2023-01-15T08:58:56;98269.53;;;6.63;100.00
53908;BME280;40469;47.998;7.794;2023-01-15T09:01:21;98277.34;;;6.53;100.00
53908;BME280;40469;47.998;7.794;2023-01-15T09:03:46;98275.72;;;6.32;100.00
53908;BME280;40469;47.998;7.794;2023-01-15T09:06:11;98287.00;;;6.18;100.00
53908;BME280;40469;47.998;7.794;2023-01-15T09:08:37;98287.06;;;6.09;100.00
53908;BME280;40469;47.998;7.794;2023-01-15T09:11:03;98291.34;;;6.08;100.00
53908;BME280;40469;47.998;7.794;2023-01-15T09:13:29;98295.69;;;5.88;100.00
53908;BME280;40469;47.998;7.794;2023-01-15T09:15:58;98297.41;;;5.75;100.00
53908;BME280;40469;47.998;7.794;2023-01-15T09:18:23;98289.69;;;5.74;100.00
53908;BME280;40469;47.998;7.794;2023-01-15T09:20:49;98289.69;;;5.72;100.00
53908;BME280;40469;47.998;7.794;2023-01-15T09:23:14;98312.13;;;5.68;100.00
53908;BME280;40469;47.998;7.794;2023-01-15T09:25:40;98312.97;;;5.66;100.00
53908;BME280;40469;47.998;7.794;2023-01-15T09:28:06;98307.78;;;5.63;100.00
53908;BME280;40469;47.998;7.794;2023-01-15T09:30:31;98311.25;;;5.66;100.00
53908;BME280;40469;47.998;7.794;2023-01-15T09:32:57;98320.75;;;5.58;100.00
53908;BME280;40469;47.998;7.794;2023-01-15T09:35:22;98335.44;;;5.58;100.00
53908;BME280;40469;47.998;7.794;2023-01-15T09:37:51;98348.34;;;5.36;100.00
53908;BME280;40469;47.998;7.794;2023-01-15T09:40:39;98367.34;;;5.35;100.00
53908;BME280;40469;47.998;7.794;2023-01-15T09:43:09;98363.88;;;5.16;100.00
53908;BME280;40469;47.998;7.794;2023-01-15T09:45:42;98363.00;;;5.12;100.00
53908;BME280;40469;47.998;7.794;2023-01-15T09:48:20;98370.72;;;5.02;100.00
53908;BME280;40469;47.998;7.794;2023-01-15T09:56:01;98382.69;;;4.78;100.00
53908;BME280;40469;47.998;7.794;2023-01-15T09:58:34;98395.63;;;4.73;100.00
53908;BME280;40469;47.998;7.794;2023-01-15T10:01:00;98399.03;;;4.69;100.00
53908;BME280;40469;47.998;7.794;2023-01-15T10:03:42;98397.28;;;4.58;100.00
53908;BME280;40469;47.998;7.794;2023-01-15T10:08:47;98414.47;;;4.49;100.00
53908;BME280;40469;47.998;7.794;2023-01-15T10:13:42;98407.50;;;4.36;100.00
53908;BME280;40469;47.998;7.794;2023-01-15T10:16:10;98412.66;;;4.37;100.00
53908;BME280;40469;47.998;7.794;2023-01-15T10:18:37;98423.84;;;4.33;100.00
53908;BME280;40469;47.998;7.794;2023-01-15T10:21:14;98433.34;;;4.34;100.00
53908;BME280;40469;47.998;7.794;2023-01-15T10:26:16;98447.97;;;4.35;100.00
53908;BME280;40469;47.998;7.794;2023-01-15T10:28:59;98453.06;;;4.25;100.00
53908;BME280;40469;47.998;7.794;2023-01-15T10:31:29;98452.25;;;4.26;100.00
53908;BME280;40469;47.998;7.794;2023-01-15T10:36:31;98456.53;;;4.22;100.00
53908;BME280;40469;47.998;7.794;2023-01-15T10:46:16;98461.69;;;4.24;100.00
53908;BME280;40469;47.998;7.794;2023-01-15T10:48:45;98472.81;;;4.18;100.00
53908;BME280;40469;47.998;7.794;2023-01-15T10:51:13;98475.41;;;4.15;100.00
53908;BME280;40469;47.998;7.794;2023-01-15T10:53:41;98472.03;;;4.27;100.00
53908;BME280;40469;47.998;7.794;2023-01-15T10:56:10;98469.50;;;4.33;100.00
53908;BME280;40469;47.998;7.794;2023-01-15T10:58:39;98478.06;;;4.24;100.00
53908;BME280;40469;47.998;7.794;2023-01-15T11:01:08;98475.47;;;4.24;100.00
53908;BME280;40469;47.998;7.794;2023-01-15T11:03:39;98478.91;;;4.25;100.00
53908;BME280;40469;47.998;7.794;2023-01-15T11:06:06;98481.56;;;4.32;100.00
53908;BME280;40469;47.998;7.794;2023-01-15T11:08:35;98489.28;;;4.28;100.00
53908;BME280;40469;47.998;7.794;2023-01-15T11:11:08;98483.25;;;4.27;100.00
53908;BME280;40469;47.998;7.794;2023-01-15T11:13:38;98491.91;;;4.31;100.00
53908;BME280;40469;47.998;7.794;2023-01-15T11:16:23;98489.34;;;4.39;100.00
53908;BME280;40469;47.998;7.794;2023-01-15T11:19:29;98493.72;;;4.46;100.00
53908;BME280;40469;47.998;7.794;2023-01-15T11:22:18;98497.09;;;4.35;100.00
53908;BME280;40469;47.998;7.794;2023-01-15T11:24:50;98504.94;;;4.45;100.00
53908;BME280;40469;47.998;7.794;2023-01-15T11:27:22;98504.88;;;4.40;100.00
53908;BME280;40469;47.998;7.794;2023-01-15T11:30:06;98503.97;;;4.35;100.00
53908;BME280;40469;47.998;7.794;2023-01-15T11:32:33;98522.09;;;4.41;100.00
53908;BME280;40469;47.998;7.794;2023-01-15T11:35:00;98520.34;;;4.35;100.00
53908;BME280;40469;47.998;7.794;2023-01-15T11:37:26;98515.16;;;4.31;100.00
53908;BME280;40469;47.998;7.794;2023-01-15T11:39:58;98508.25;;;4.31;100.00
53908;BME280;40469;47.998;7.794;2023-01-15T11:42:36;98507.41;;;4.31;100.00
53908;BME280;40469;47.998;7.794;2023-01-15T11:45:21;98516.84;;;4.26;100.00
53908;BME280;40469;47.998;7.794;2023-01-15T11:48:15;98525.47;;;4.29;100.00
53908;BME280;40469;47.998;7.794;2023-01-15T11:51:02;98531.47;;;4.24;100.00
53908;BME280;40469;47.998;7.794;2023-01-15T11:53:31;98524.44;;;4.09;100.00
53908;BME280;40469;47.998;7.794;2023-01-15T11:56:01;98517.59;;;4.15;100.00
53908;BME280;40469;47.998;7.794;2023-01-15T11:58:32;98521.91;;;4.15;100.00
53908;BME280;40469;47.998;7.794;2023-01-15T12:00:58;98521.06;;;4.17;100.00
53908;BME280;40469;47.998;7.794;2023-01-15T12:03:25;98514.16;;;4.15;100.00
53908;BME280;40469;47.998;7.794;2023-01-15T12:05:58;98514.16;;;4.15;100.00
53908;BME280;40469;47.998;7.794;2023-01-15T12:16:22;98549.50;;;4.19;100.00
53908;BME280;40469;47.998;7.794;2023-01-15T12:18:58;98533.06;;;4.11;100.00
53908;BME280;40469;47.998;7.794;2023-01-15T12:21:33;98537.41;;;4.15;100.00
53908;BME280;40469;47.998;7.794;2023-01-15T12:26:52;98541.78;;;4.22;100.00
53908;BME280;40469;47.998;7.794;2023-01-15T12:29:27;98550.34;;;4.18;100.00
53908;BME280;40469;47.998;7.794;2023-01-15T12:31:57;98549.53;;;4.21;100.00
53908;BME280;40469;47.998;7.794;2023-01-15T12:34:47;98555.53;;;4.16;100.00
53908;BME280;40469;47.998;7.794;2023-01-15T12:37:27;98544.38;;;4.24;100.00
53908;BME280;40469;47.998;7.794;2023-01-15T12:42:45;98544.41;;;4.28;100.00
53908;BME280;40469;47.998;7.794;2023-01-15T12:45:35;98550.41;;;4.23;100.00
53908;BME280;40469;47.998;7.794;2023-01-15T12:50:48;98553.06;;;4.32;100.00
53908;BME280;40469;47.998;7.794;2023-01-15T12:53:42;98543.59;;;4.34;100.00
53908;BME280;40469;47.998;7.794;2023-01-15T12:56:41;98541.81;;;4.27;100.00
53908;BME280;40469;47.998;7.794;2023-01-15T12:59:38;98541.00;;;4.31;100.00
53908;BME280;40469;47.998;7.794;2023-01-15T13:02:11;98539.31;;;4.36;100.00
53908;BME280;40469;47.998;7.794;2023-01-15T13:04:51;98537.50;;;4.29;100.00
53908;BME280;40469;47.998;7.794;2023-01-15T13:07:40;98540.16;;;4.33;100.00
53908;BME280;40469;47.998;7.794;2023-01-15T13:10:17;98547.06;;;4.34;100.00
53908;BME280;40469;47.998;7.794;2023-01-15T13:12:43;98553.13;;;4.38;100.00
53908;BME280;40469;47.998;7.794;2023-01-15T13:15:16;98553.13;;;4.38;100.00
53908;BME280;40469;47.998;7.794;2023-01-15T13:20:46;98566.94;;;4.42;100.00
53908;BME280;40469;47.998;7.794;2023-01-15T13:25:55;98575.09;;;4.99;100.00
53908;BME280;40469;47.998;7.794;2023-01-15T13:31:22;98576.69;;;4.81;100.00
53908;BME280;40469;47.998;7.794;2023-01-15T13:33:55;98580.22;;;4.89;100.00
53908;BME280;40469;47.998;7.794;2023-01-15T13:36:39;98589.78;;;5.04;100.00
53908;BME280;40469;47.998;7.794;2023-01-15T13:39:14;98589.75;;;4.98;100.00
53908;BME280;40469;47.998;7.794;2023-01-15T13:41:40;98588.97;;;5.13;100.00
53908;BME280;40469;47.998;7.794;2023-01-15T13:44:28;98588.13;;;5.19;100.00
53908;BME280;40469;47.998;7.794;2023-01-15T13:47:08;98586.41;;;5.16;100.00
53908;BME280;40469;47.998;7.794;2023-01-15T13:49:40;98589.84;;;5.12;100.00
53908;BME280;40469;47.998;7.794;2023-01-15T13:52:07;98592.44;;;5.17;100.00
53908;BME280;40469;47.998;7.794;2023-01-15T13:54:44;98604.53;;;5.18;100.00
53908;BME280;40469;47.998;7.794;2023-01-15T13:57:22;98615.75;;;5.18;100.00
53908;BME280;40469;47.998;7.794;2023-01-15T13:59:48;98601.13;;;5.25;100.00
53908;BME280;40469;47.998;7.794;2023-01-15T14:02:29;98608.94;;;5.36;100.00
53908;BME280;40469;47.998;7.794;2023-01-15T14:04:56;98596.88;;;5.33;100.00
53908;BME280;40469;47.998;7.794;2023-01-15T14:07:35;98608.09;;;5.35;100.00
53908;BME280;40469;47.998;7.794;2023-01-15T14:15:20;98615.94;;;5.52;100.00
53908;BME280;40469;47.998;7.794;2023-01-15T14:20:41;98615.03;;;5.48;100.00
53908;BME280;40469;47.998;7.794;2023-01-15T14:26:01;98607.31;;;5.55;100.00
53908;BME280;40469;47.998;7.794;2023-01-15T14:34:31;98618.69;;;5.94;100.00
53908;BME280;40469;47.998;7.794;2023-01-15T14:37:03;98616.94;;;5.91;100.00